KADW/ADW METAR and TAF weather

Enter ICAO airport designator
Station Type Date Time Source
KADW METAR 2021/01/22 02:56 UTC NOAA

KADW 220256Z 00000KT 10SM CLR 02/M03 A2969


Station Type Date Time Source
KADW Decoded METAR 2021/01/22 02:56 UTC NOAA

Camp Springs / Andrews Air Force Base, MD, United States (KADW) 38-49N 076-51W 88M
Jan 21, 2021 - 09:56 PM EST / 2021.01.22 0256 UTC
Wind: Calm:0
Visibility: 10 mile(s):0
Sky conditions: clear
Temperature: 35 F (2 C)
Dew Point: 26 F (-3 C)
Relative Humidity: 69%
Pressure (altimeter): 29.69 in. Hg (1005 hPa)
ob: KADW 220256Z 00000KT 10SM CLR 02/M03 A2969
cycle: 3

Station Type Date Time Source
KADW TAF 2021/01/20 17:03 UTC NOAA

TAF TAF KADW 201700Z 2017/2123 29015G30KT 9999 SCT050 SCT250 520004 QNH3000INS
TEMPO 2017/2021 30020G35KT
BECMG 2021/2022 32012KT 9999 SCT120 BKN250 QNH3003INS
BECMG 2104/2105 VRB06KT 9999 SCT250 QNH2988INS
BECMG 2110/2111 21009KT 9999 SCT080 SCT250 QNH2968INS
BECMG 2115/2116 26012KT 9999 SCT250 QNH2972INS TX06/2117Z TNM03/2111Z

Example: see airport list